W K Kellogg Airport
KBTL : now visible

Airfield :











YOU CAN JOIN US ON...

 
LOGIN :

Register | Disclaimer

   EN    FR    IT 

 









Legend :    VFR   Marginal VFR   IFR   Intensive IFR   Very Intensive IFR
Visi :
Ceiling :
>= 8 km
>= 3000ft
5 to 8 km
1000 to 3000 ft
1500m to 5 km
500 to 1000 ft
800 to 1500m
200 to 500 ft
< 800m
< 200 ft
Symbols :   Thunderstorms  Fog  Heavy snow  Heavy precipitations  Wind > 20 kt






- Airport Elevation : 952 ft


KBTL - W K Kellogg

CURRENT METAR :
  • 181135Z AUTO 13010KT 3SM UP BR BKN010 OVC015 M02/M03 A2990 RMK AO2 P0004 T10171028

EXPIRED METARs :
  • 181130Z AUTO 13010KT 2SM UP BR BKN008 BKN012 OVC018 M02/M03 A2991 RMK AO2 P0004 T10171028
  • 181103Z AUTO 12011G16KT 1 3/4SM UP BR FEW009 BKN016 OVC025 M02/M03 A2993 RMK AO2 P0002 T10221033
  • 181053Z AUTO 12010G20KT 1 1/2SM UP BR OVC019 M02/M03 A2995 RMK AO2 SLP153 P0008 T10221033
  • 181041Z AUTO 12011G20KT 1 1/2SM UP BR BKN018 OVC024 M02/M03 A2996 RMK AO2 P0006 T10221033
  • 180958Z AUTO 12010KT 2 1/2SM UP BR FEW011 BKN017 OVC022 M03/M04 A3001 RMK AO2 PRESFR P0001 T10281039
  • 180936Z AUTO 13011KT 5SM UP BR OVC012 M03/M04 A3004 RMK AO2 UPB0856E02B30FZRAB02E30SNE0856 P0005 I1001 T10281039
  • 180906Z AUTO 12012G21KT 4SM FZRA BR BKN012 OVC026 M03/M04 A3006 RMK AO2 UPB0856E02FZRAB02SNE0856 P0002 I1001 T10281044
  • 180853Z AUTO 12013G22KT 3SM -SN BR SCT012 BKN021 OVC031 M03/M04 A3006 RMK AO2 SLP192 P0004 60006 T10281044 58058

TAF KBTL
Valid from the 18 at 12:00 until the 19 at 12:00 UTC


181133Z 1812/1912 12012G20KT 4SM -SN BR OVC012
TEMPO 1812/1815 1SM -FZRAPL BR OVC008
FM181500 16012G20KT 1/2SM -DZ FG VV004
FM182100 26024G36KT 4SM -SN BR OVC015
FM182300 26024G36KT 4SM -SHSN OVC025
FM190600 26018G28KT 4SM -SHSN OVC025



MET'MAP, your aeronautical weather chart ! - Copyright ORBIFLY December 2007 - Disclaimer

ORBIFLY MET'MAP TEAM :

Programming & Development : Alexandra Zaïnal
Concept & original design : Baudouin d'Aumeries
Assistance for programming : Marc-Olivier Méhu
Technical & hardware support : Manuel Goepfert

Contact : metmap@orbifly.com




SOURCES & CREDITS :

   NOAA       Earth
Advisory